Terminal Aerodrome Forecast
Issued by NWS Springfield, MO

Home | Current Version | Previous Version | Text Only | Print | Product List | Glossary On
Versions: 1 2 3 4 5 6 7 8 9 10 11 12 13
007
FTUS43 KSGF 201120
TAFSGF
TAF
KSGF 201120Z 2012/2112 16009KT P6SM FEW250
     FM201500 16015G20KT P6SM SCT250
     FM210100 16018G25KT P6SM SCT250 WS020/19040KT=

USA.gov is the U.S. government's official web portal to all federal, state and local government web resources and services.